Time;durP1;ratioP1;P1;durP2;ratioP2;P2;SDS_P1;SDS_P2;PMS_P1;PMS_P2;Temp;Humidity;BMP_temperature;BMP_pressure;BME280_temperature;BME280_humidity;BME280_pressure;Samples;Min_cycle;Max_cycle;Signal;HPM_P1;HPM_P2
2022/09/22 00:02:00;;;;;;;9.52;8.15;;;12.90;99.90;;;;;;4861377;29;20469;-60
2022/09/22 00:04:27;;;;;;;9.88;7.65;;;12.90;99.90;;;;;;4860846;29;20026;-62
2022/09/22 00:06:54;;;;;;;9.70;7.70;;;12.90;99.90;;;;;;4861085;29;20365;-62
2022/09/22 00:09:20;;;;;;;9.15;7.30;;;12.90;99.90;;;;;;4861017;29;20064;-62
2022/09/22 00:11:50;;;;;;;7.03;5.53;;;12.90;99.90;;;;;;4861161;29;20026;-59
2022/09/22 00:14:20;;;;;;;7.57;6.53;;;12.90;99.90;;;;;;4861317;29;20166;-63
2022/09/22 00:16:53;;;;;;;6.43;5.82;;;12.90;99.90;;;;;;4861181;29;20084;-59
2022/09/22 00:19:25;;;;;;;9.18;7.25;;;12.90;99.90;;;;;;4861152;29;20108;-62
2022/09/22 00:21:51;;;;;;;8.15;7.07;;;12.80;99.90;;;;;;4861122;29;20037;-60
2022/09/22 00:24:18;;;;;;;11.80;9.45;;;12.80;99.90;;;;;;4861022;29;20030;-63
2022/09/22 00:26:44;;;;;;;12.43;10.75;;;12.80;99.90;;;;;;4860680;29;20033;-63
2022/09/22 00:29:11;;;;;;;10.50;8.38;;;12.70;99.90;;;;;;4860774;29;20052;-62
2022/09/22 00:31:40;;;;;;;8.77;7.60;;;12.60;99.90;;;;;;4861449;29;20052;-61
2022/09/22 00:34:08;;;;;;;9.57;7.43;;;12.60;99.90;;;;;;4860883;29;20029;-61
2022/09/22 00:36:34;;;;;;;10.43;8.18;;;12.70;99.90;;;;;;4860715;29;20434;-59
2022/09/22 00:38:59;;;;;;;8.00;6.75;;;12.70;99.90;;;;;;4860788;29;20117;-62
2022/09/22 00:41:29;;;;;;;6.80;6.03;;;12.70;99.90;;;;;;4860650;29;20588;-60
2022/09/22 00:44:19;;;;;;;6.38;5.30;;;12.70;99.90;;;;;;4860710;29;20389;-60
2022/09/22 00:46:50;;;;;;;7.38;6.50;;;12.70;99.90;;;;;;4860995;29;20056;-62
2022/09/22 00:49:17;;;;;;;8.02;6.80;;;12.70;99.90;;;;;;4860600;29;20112;-61
2022/09/22 00:51:43;;;;;;;8.27;7.32;;;12.70;99.90;;;;;;4860884;29;20026;-61
2022/09/22 00:54:14;;;;;;;10.45;8.73;;;12.70;99.90;;;;;;4860632;29;20389;-60
2022/09/22 00:57:00;;;;;;;11.57;8.35;;;12.60;99.90;;;;;;4860457;29;20030;-63
2022/09/22 00:59:26;;;;;;;8.98;8.07;;;12.50;99.90;;;;;;4860699;29;20481;-58
2022/09/22 01:01:52;;;;;;;8.98;6.75;;;12.50;99.90;;;;;;4860505;29;20074;-59
2022/09/22 01:04:18;;;;;;;7.53;6.25;;;12.50;99.90;;;;;;4860591;29;20025;-59
2022/09/22 01:06:45;;;;;;;7.03;5.68;;;12.50;99.90;;;;;;4860598;29;20028;-62
2022/09/22 01:09:12;;;;;;;8.32;7.22;;;12.50;99.90;;;;;;4860289;29;20059;-61
2022/09/22 01:11:39;;;;;;;8.65;7.70;;;12.50;99.90;;;;;;4860751;29;20062;-60
2022/09/22 01:14:08;;;;;;;8.23;6.88;;;12.40;99.90;;;;;;4860461;29;20030;-63
2022/09/22 01:16:46;;;;;;;8.70;6.93;;;12.30;99.90;;;;;;4862677;29;20473;-62
2022/09/22 01:19:49;;;;;;;12.80;9.45;;;12.40;99.90;;;;;;4863838;29;20038;-61
2022/09/22 01:22:33;;;;;;;8.60;7.63;;;12.30;99.90;;;;;;4863720;29;20029;-62
2022/09/22 01:25:11;;;;;;;9.88;7.90;;;12.30;99.90;;;;;;4863715;29;20026;-62
2022/09/22 01:27:50;;;;;;;9.07;7.60;;;12.20;99.90;;;;;;4863730;29;20090;-61
2022/09/22 01:30:32;;;;;;;9.20;7.43;;;12.20;99.90;;;;;;4863865;29;20381;-63
2022/09/22 01:33:28;;;;;;;11.20;8.85;;;12.20;99.90;;;;;;4863711;29;20032;-61
2022/09/22 01:36:01;;;;;;;9.30;8.32;;;12.20;99.90;;;;;;4863802;29;20033;-59
2022/09/22 01:38:56;;;;;;;12.60;9.60;;;12.10;99.90;;;;;;4863336;29;20033;-61
2022/09/22 01:41:49;;;;;;;10.80;8.25;;;12.10;99.90;;;;;;4840503;29;20103;-61
2022/09/22 01:44:26;;;;;;;11.32;9.40;;;12.10;99.90;;;;;;4845072;29;20029;-62
2022/09/22 01:47:09;;;;;;;11.43;9.68;;;12.10;99.90;;;;;;4845054;29;20061;-59
2022/09/22 01:49:40;;;;;;;12.43;10.15;;;12.00;99.90;;;;;;4844954;29;20026;-59
2022/09/22 01:52:10;;;;;;;13.02;10.18;;;12.00;99.90;;;;;;4844931;29;20096;-64
2022/09/22 01:55:04;;;;;;;18.10;13.05;;;11.90;99.90;;;;;;4844866;29;20018;-61
2022/09/22 01:57:42;;;;;;;12.73;11.35;;;11.90;99.90;;;;;;4844713;29;20560;-62
2022/09/22 02:00:09;;;;;;;13.40;11.27;;;11.80;99.90;;;;;;4844955;29;20033;-59
2022/09/22 02:02:39;;;;;;;12.05;10.18;;;11.80;99.90;;;;;;4844703;29;20026;-63
2022/09/22 02:05:12;;;;;;;16.02;12.55;;;11.80;99.90;;;;;;4844835;29;20113;-64
2022/09/22 02:07:41;;;;;;;14.70;11.68;;;11.80;99.90;;;;;;4844539;29;20026;-59
2022/09/22 02:10:11;;;;;;;15.75;12.98;;;11.80;99.90;;;;;;4844597;29;20102;-62
2022/09/22 02:12:37;;;;;;;14.90;12.13;;;11.80;99.90;;;;;;4844496;29;20026;-61
2022/09/22 02:15:58;;;;;;;15.65;11.68;;;11.80;99.90;;;;;;4844470;29;20121;-60
2022/09/22 02:18:01;;;;;;;13.32;11.00;;;11.80;99.90;;;;;;4844297;29;20173;-59
2022/09/22 02:20:27;;;;;;;12.00;8.68;;;11.80;99.90;;;;;;4844299;29;20026;-63
2022/09/22 02:22:53;;;;;;;9.70;8.68;;;11.90;99.90;;;;;;4844262;29;20150;-60
2022/09/22 02:25:20;;;;;;;10.48;8.50;;;11.90;99.90;;;;;;4844314;29;20104;-61
2022/09/22 02:27:46;;;;;;;7.95;7.15;;;12.00;99.90;;;;;;4844081;29;20550;-61
2022/09/22 02:30:13;;;;;;;9.10;6.88;;;12.00;99.90;;;;;;4844403;29;20025;-60
2022/09/22 02:32:44;;;;;;;7.20;6.30;;;12.00;99.90;;;;;;4844458;29;20086;-60
2022/09/22 02:35:10;;;;;;;8.15;6.15;;;12.00;99.90;;;;;;4844291;29;20026;-59
2022/09/22 02:37:47;;;;;;;8.82;6.50;;;12.00;99.90;;;;;;4843947;29;20037;-62
2022/09/22 02:40:29;;;;;;;7.05;6.13;;;12.10;99.90;;;;;;4850273;29;20056;-60
2022/09/22 02:43:11;;;;;;;8.68;6.85;;;12.10;99.90;;;;;;4862312;29;20036;-60
2022/09/22 02:45:52;;;;;;;10.93;8.07;;;12.10;99.90;;;;;;4862602;29;20034;-63
2022/09/22 02:48:23;;;;;;;10.68;9.02;;;12.10;99.90;;;;;;4862530;29;20501;-63
2022/09/22 02:50:50;;;;;;;17.05;11.77;;;12.10;99.90;;;;;;4862111;29;20101;-64
2022/09/22 02:53:17;;;;;;;12.93;10.13;;;12.00;99.90;;;;;;4862187;29;20034;-62
2022/09/22 02:55:44;;;;;;;10.77;9.30;;;12.00;99.90;;;;;;4862193;29;20025;-61
2022/09/22 02:58:10;;;;;;;11.57;9.30;;;12.00;99.90;;;;;;4862097;29;20029;-58
2022/09/22 03:00:36;;;;;;;10.07;8.07;;;12.00;99.90;;;;;;4862074;29;20537;-63
2022/09/22 03:03:02;;;;;;;9.10;7.95;;;12.00;99.90;;;;;;4862175;29;20048;-61
2022/09/22 03:05:28;;;;;;;10.38;7.65;;;12.00;99.90;;;;;;4862132;29;20434;-62
2022/09/22 03:07:53;;;;;;;9.98;8.10;;;12.00;99.90;;;;;;4862194;29;20069;-61
2022/09/22 03:10:19;;;;;;;11.65;8.80;;;12.00;99.90;;;;;;4862049;29;20021;-63
2022/09/22 03:12:45;;;;;;;10.65;8.68;;;12.10;99.90;;;;;;4862119;29;20064;-60
2022/09/22 03:15:12;;;;;;;13.05;9.63;;;12.00;99.90;;;;;;4861899;29;20041;-62
2022/09/22 03:17:38;;;;;;;11.45;8.50;;;11.90;99.90;;;;;;4861675;29;20393;-59
2022/09/22 03:20:05;;;;;;;10.68;8.00;;;11.80;99.90;;;;;;4861614;29;20032;-61
2022/09/22 03:22:31;;;;;;;10.52;9.13;;;11.90;99.90;;;;;;4861675;29;20481;-63
2022/09/22 03:24:57;;;;;;;15.73;12.45;;;11.90;99.90;;;;;;4861870;29;20061;-60
2022/09/22 03:27:23;;;;;;;16.02;12.18;;;11.80;99.90;;;;;;4861920;29;20078;-62
2022/09/22 03:29:48;;;;;;;13.98;10.82;;;11.60;99.90;;;;;;4861920;29;20489;-62
2022/09/22 03:32:14;;;;;;;14.30;11.05;;;11.60;99.90;;;;;;4861487;29;20022;-60
2022/09/22 03:34:40;;;;;;;12.25;9.43;;;11.60;99.90;;;;;;4861418;29;20029;-63
2022/09/22 03:37:05;;;;;;;11.85;8.68;;;11.70;99.90;;;;;;4861381;29;20121;-62
2022/09/22 03:39:31;;;;;;;13.10;10.00;;;11.70;99.90;;;;;;4860961;29;20037;-59
2022/09/22 03:41:57;;;;;;;12.15;9.00;;;11.70;99.90;;;;;;4861401;29;20104;-63
2022/09/22 03:44:25;;;;;;;12.35;9.98;;;11.70;99.90;;;;;;4861602;29;20065;-58
2022/09/22 03:46:51;;;;;;;12.88;10.07;;;11.70;99.90;;;;;;4861609;29;20094;-61
2022/09/22 03:49:16;;;;;;;14.23;11.50;;;11.70;99.90;;;;;;4861316;29;20045;-63
2022/09/22 03:51:42;;;;;;;17.50;12.10;;;11.60;99.90;;;;;;4861347;29;20384;-59
2022/09/22 03:54:08;;;;;;;18.25;13.73;;;11.60;99.90;;;;;;4861330;29;20503;-64
2022/09/22 03:56:33;;;;;;;19.92;14.38;;;11.50;99.90;;;;;;4861187;29;20029;-63
2022/09/22 03:58:59;;;;;;;20.23;15.07;;;11.40;99.90;;;;;;4861170;29;20038;-60
2022/09/22 04:01:25;;;;;;;27.73;18.48;;;11.40;99.90;;;;;;4861201;29;20022;-60
2022/09/22 04:03:51;;;;;;;29.20;21.98;;;11.40;99.90;;;;;;4860874;29;20124;-61
2022/09/22 04:06:17;;;;;;;36.60;26.63;;;11.40;99.90;;;;;;4861242;29;20037;-59
2022/09/22 04:08:43;;;;;;;53.55;36.55;;;11.40;99.90;;;;;;4861344;29;20033;-60
2022/09/22 04:11:08;;;;;;;63.58;42.33;;;11.40;99.90;;;;;;4861028;29;20385;-59
2022/09/22 04:13:34;;;;;;;37.47;29.02;;;11.40;99.90;;;;;;4861250;29;20120;-62
2022/09/22 04:16:01;;;;;;;27.02;19.80;;;11.50;99.90;;;;;;4861017;29;20034;-60
2022/09/22 04:18:28;;;;;;;25.40;16.48;;;11.40;99.90;;;;;;4860723;29;20120;-60
2022/09/22 04:20:57;;;;;;;23.92;13.85;;;11.40;99.90;;;;;;4860917;29;20026;-64
2022/09/22 04:23:24;;;;;;;18.98;13.05;;;11.40;99.90;;;;;;4861238;29;20034;-61
2022/09/22 04:25:50;;;;;;;17.90;12.13;;;11.30;99.90;;;;;;4861003;29;20045;-62
2022/09/22 04:28:16;;;;;;;18.58;11.85;;;11.30;99.90;;;;;;4861046;29;20510;-62
2022/09/22 04:30:42;;;;;;;15.77;9.98;;;11.30;99.90;;;;;;4860904;29;20032;-62
2022/09/22 04:33:09;;;;;;;19.75;11.55;;;11.30;99.90;;;;;;4860669;29;20534;-61
2022/09/22 04:35:35;;;;;;;15.02;10.00;;;11.30;99.90;;;;;;4860787;29;20104;-60
2022/09/22 04:38:01;;;;;;;14.80;9.43;;;11.30;99.90;;;;;;4860762;29;20041;-61
2022/09/22 04:40:27;;;;;;;12.07;8.10;;;11.30;99.90;;;;;;4860818;29;20128;-60
2022/09/22 04:42:53;;;;;;;14.02;7.53;;;11.30;99.90;;;;;;4860944;29;20033;-62
2022/09/22 04:45:19;;;;;;;10.55;6.75;;;11.30;99.90;;;;;;4860732;29;20041;-61
2022/09/22 04:47:50;;;;;;;8.73;6.50;;;11.40;99.90;;;;;;4860552;29;20029;-61
2022/09/22 04:50:18;;;;;;;14.75;7.13;;;11.40;99.90;;;;;;4862690;29;20092;-61
2022/09/22 04:52:49;;;;;;;9.77;6.50;;;11.40;99.90;;;;;;4864522;29;20030;-60
2022/09/22 04:55:15;;;;;;;12.13;6.20;;;11.40;99.90;;;;;;4866057;29;20027;-63
2022/09/22 04:57:46;;;;;;;8.55;5.60;;;11.40;99.90;;;;;;4871787;29;20102;-61
2022/09/22 05:00:12;;;;;;;8.70;5.38;;;11.40;99.90;;;;;;4882576;29;20369;-60
2022/09/22 05:02:37;;;;;;;7.18;5.20;;;11.40;99.90;;;;;;4873859;29;20081;-62
2022/09/22 05:05:04;;;;;;;7.72;5.22;;;11.40;99.90;;;;;;4863732;29;20500;-59
2022/09/22 05:07:30;;;;;;;13.52;6.32;;;11.40;99.90;;;;;;4864264;29;20038;-61
2022/09/22 05:09:56;;;;;;;6.35;5.20;;;11.40;99.90;;;;;;4863427;29;20025;-62
2022/09/22 05:12:22;;;;;;;7.07;4.88;;;11.40;99.90;;;;;;4870190;29;20068;-60
2022/09/22 05:14:47;;;;;;;7.40;5.13;;;11.40;99.90;;;;;;4880940;29;20083;-63
2022/09/22 05:17:13;;;;;;;8.45;5.43;;;11.40;99.90;;;;;;4898536;29;20036;-60
2022/09/22 05:19:39;;;;;;;7.43;4.65;;;11.40;99.90;;;;;;4899831;29;20039;-61
2022/09/22 05:22:06;;;;;;;8.95;5.20;;;11.40;99.90;;;;;;4882638;29;20119;-63
2022/09/22 05:24:31;;;;;;;8.68;5.90;;;11.50;99.90;;;;;;4896919;29;20028;-62
2022/09/22 05:26:57;;;;;;;9.55;5.53;;;11.50;99.90;;;;;;4871211;29;20033;-60
2022/09/22 05:29:23;;;;;;;9.90;6.45;;;11.60;99.90;;;;;;4860968;29;20045;-59
2022/09/22 05:31:49;;;;;;;13.05;5.45;;;11.60;99.90;;;;;;4861412;29;20029;-60
2022/09/22 05:34:15;;;;;;;9.25;5.40;;;11.60;99.90;;;;;;4895189;29;20029;-61
2022/09/22 05:36:41;;;;;;;10.55;5.82;;;11.70;99.90;;;;;;4898633;29;20025;-62
2022/09/22 05:39:07;;;;;;;6.97;4.93;;;11.70;99.90;;;;;;4890807;29;20065;-60
2022/09/22 05:41:33;;;;;;;6.00;4.72;;;11.70;99.90;;;;;;4898274;29;20376;-61
2022/09/22 05:43:58;;;;;;;9.32;5.35;;;11.70;99.90;;;;;;4898270;29;20032;-62
2022/09/22 05:46:24;;;;;;;6.15;4.72;;;11.70;99.90;;;;;;4898679;29;20036;-61
2022/09/22 05:48:50;;;;;;;7.88;5.30;;;11.70;99.90;;;;;;4880096;29;20036;-61
2022/09/22 05:51:16;;;;;;;6.35;5.13;;;11.70;99.90;;;;;;4890153;29;20036;-62
2022/09/22 05:53:41;;;;;;;14.00;6.20;;;11.70;99.90;;;;;;4895676;29;20033;-60
2022/09/22 05:56:07;;;;;;;10.88;6.07;;;11.70;99.90;;;;;;4897941;29;20021;-62
2022/09/22 05:58:33;;;;;;;14.60;7.40;;;11.70;99.90;;;;;;4898076;29;20031;-60
2022/09/22 06:00:58;;;;;;;6.20;5.13;;;11.70;99.90;;;;;;4898563;29;20031;-60
2022/09/22 06:03:24;;;;;;;9.65;5.95;;;11.70;99.90;;;;;;4900199;29;20024;-62
2022/09/22 06:05:50;;;;;;;7.00;5.32;;;11.70;99.90;;;;;;4899406;29;20040;-60
2022/09/22 06:08:16;;;;;;;6.40;5.50;;;11.70;99.90;;;;;;4868834;29;20169;-63
2022/09/22 06:10:44;;;;;;;9.52;5.80;;;11.80;99.90;;;;;;4893889;29;20115;-60
2022/09/22 06:13:11;;;;;;;11.82;7.50;;;11.80;99.90;;;;;;4870573;29;20029;-63
2022/09/22 06:15:37;;;;;;;8.00;5.57;;;11.80;99.90;;;;;;4873855;29;20029;-63
2022/09/22 06:18:06;;;;;;;7.03;5.43;;;11.80;99.90;;;;;;4879774;29;20085;-61
2022/09/22 06:20:33;;;;;;;11.23;7.10;;;11.90;99.90;;;;;;4872757;29;20029;-62
2022/09/22 06:22:58;;;;;;;8.88;6.63;;;11.90;99.90;;;;;;4864838;29;20102;-60
2022/09/22 06:25:28;;;;;;;8.40;6.50;;;12.00;99.90;;;;;;4862822;29;20029;-61
2022/09/22 06:28:04;;;;;;;8.35;5.70;;;12.00;99.90;;;;;;4849641;29;20029;-63
2022/09/22 06:30:50;;;;;;;7.72;5.85;;;12.10;99.90;;;;;;4871426;29;20029;-61
2022/09/22 06:33:22;;;;;;;8.98;6.45;;;12.20;99.90;;;;;;4863365;29;20041;-63
2022/09/22 06:35:49;;;;;;;12.55;8.20;;;12.30;99.90;;;;;;4867889;29;20120;-61
2022/09/22 06:38:15;;;;;;;11.95;8.95;;;12.50;99.90;;;;;;4864554;29;20077;-60
2022/09/22 06:40:42;;;;;;;18.95;13.43;;;13.10;99.90;;;;;;4862396;29;20057;-62
2022/09/22 06:43:21;;;;;;;16.20;11.80;;;13.30;99.90;;;;;;4871095;29;20115;-62
2022/09/22 06:45:50;;;;;;;23.88;15.18;;;13.30;99.90;;;;;;4868148;29;20081;-62
2022/09/22 06:48:17;;;;;;;17.27;12.27;;;13.50;99.90;;;;;;4864275;29;20038;-61
2022/09/22 06:50:52;;;;;;;17.67;12.60;;;13.40;99.90;;;;;;4862113;29;20516;-62
2022/09/22 06:53:19;;;;;;;16.85;13.00;;;13.60;99.90;;;;;;4860995;29;20033;-60
2022/09/22 06:55:45;;;;;;;18.10;12.55;;;13.70;99.90;;;;;;4861531;29;20029;-60
2022/09/22 06:58:13;;;;;;;18.52;13.43;;;15.30;99.90;;;;;;4863853;29;20042;-63
2022/09/22 07:00:41;;;;;;;14.63;11.98;;;15.50;99.90;;;;;;4861749;29;20053;-65
2022/09/22 07:03:21;;;;;;;17.60;11.82;;;16.60;99.90;;;;;;4868377;29;20385;-61
2022/09/22 07:06:00;;;;;;;15.93;11.98;;;17.50;99.60;;;;;;4876772;29;20029;-63
2022/09/22 07:08:27;;;;;;;18.48;13.43;;;17.10;98.10;;;;;;4853793;29;20515;-63
2022/09/22 07:10:58;;;;;;;18.35;13.40;;;17.60;98.90;;;;;;4872081;29;20441;-62
2022/09/22 07:13:28;;;;;;;14.65;11.77;;;16.90;99.90;;;;;;4862539;29;20032;-61
2022/09/22 07:16:08;;;;;;;15.85;11.77;;;16.90;99.90;;;;;;4859797;29;20045;-62
2022/09/22 07:18:35;;;;;;;13.60;11.40;;;16.30;99.90;;;;;;4860489;29;20038;-61
2022/09/22 07:21:08;;;;;;;24.67;18.70;;;15.90;99.90;;;;;;4860572;29;20507;-62
2022/09/22 07:23:35;;;;;;;18.02;14.35;;;17.70;98.80;;;;;;4860249;29;20112;-60
2022/09/22 07:26:06;;;;;;;22.30;15.57;;;17.80;99.00;;;;;;4859659;29;20029;-61
2022/09/22 07:28:33;;;;;;;17.52;13.18;;;20.00;92.50;;;;;;4890679;29;20440;-62
2022/09/22 07:31:22;;;;;;;18.02;13.05;;;20.00;78.20;;;;;;4896703;29;20094;-62
2022/09/22 07:33:48;;;;;;;21.50;12.07;;;19.20;79.30;;;;;;4896396;29;20028;-63
2022/09/22 07:36:19;;;;;;;22.58;13.68;;;17.80;88.20;;;;;;4866006;29;20029;-61
2022/09/22 07:38:48;;;;;;;20.77;13.07;;;16.70;94.70;;;;;;4860399;29;20043;-63
2022/09/22 07:41:19;;;;;;;17.85;11.43;;;15.90;97.80;;;;;;4859729;29;20067;-62
2022/09/22 07:43:47;;;;;;;12.02;9.48;;;16.00;99.90;;;;;;4859852;29;20664;-61
2022/09/22 07:46:13;;;;;;;20.77;12.45;;;18.10;97.30;;;;;;4857646;29;20473;-62
2022/09/22 07:48:48;;;;;;;16.23;10.85;;;19.00;89.80;;;;;;4859260;29;20077;-61
2022/09/22 07:51:18;;;;;;;13.23;11.40;;;19.10;81.40;;;;;;4865187;29;20480;-62
2022/09/22 07:53:50;;;;;;;13.13;9.57;;;20.30;76.40;;;;;;4877654;29;20605;-61
2022/09/22 07:56:19;;;;;;;10.25;8.63;;;22.30;68.20;;;;;;4893213;29;20334;-62
2022/09/22 07:58:52;;;;;;;10.80;8.55;;;23.90;63.90;;;;;;4888098;29;20053;-62
2022/09/22 08:01:25;;;;;;;10.63;8.95;;;25.20;56.40;;;;;;4877033;29;20586;-61
2022/09/22 08:03:51;;;;;;;18.58;13.02;;;26.20;53.00;;;;;;4877544;29;20044;-62
2022/09/22 08:06:19;;;;;;;14.35;10.57;;;26.60;50.90;;;;;;4890796;29;20073;-62
2022/09/22 08:08:54;;;;;;;13.55;9.80;;;26.40;51.90;;;;;;4850293;29;20029;-62
2022/09/22 08:11:22;;;;;;;15.80;10.90;;;26.10;49.40;;;;;;4877273;29;20033;-61
2022/09/22 08:13:53;;;;;;;14.57;11.35;;;25.20;49.20;;;;;;4858032;29;20032;-61
2022/09/22 08:16:21;;;;;;;13.18;9.43;;;25.00;52.40;;;;;;4874530;29;20472;-63
2022/09/22 08:19:11;;;;;;;16.00;9.18;;;25.50;51.20;;;;;;4886012;29;20168;-62
2022/09/22 08:21:39;;;;;;;12.85;8.35;;;24.70;49.20;;;;;;4887822;29;20025;-62
2022/09/22 08:24:07;;;;;;;13.48;8.23;;;22.70;53.60;;;;;;4875972;29;20380;-61
2022/09/22 08:26:37;;;;;;;15.95;9.77;;;22.20;54.90;;;;;;4894999;29;20025;-62
2022/09/22 08:29:04;;;;;;;18.92;10.05;;;21.10;57.20;;;;;;4897209;29;20123;-63
2022/09/22 08:31:30;;;;;;;19.50;10.23;;;20.80;58.50;;;;;;4897123;29;20032;-61
2022/09/22 08:33:56;;;;;;;15.02;9.32;;;20.10;59.90;;;;;;4898007;29;20031;-64
2022/09/22 08:36:26;;;;;;;11.40;8.00;;;21.40;58.80;;;;;;4897868;29;20116;-61
2022/09/22 08:38:54;;;;;;;13.23;7.38;;;22.70;56.10;;;;;;4886549;29;20033;-67
2022/09/22 08:41:41;;;;;;;9.40;6.25;;;23.40;55.90;;;;;;4867276;29;20097;-62
2022/09/22 08:44:10;;;;;;;6.97;5.20;;;24.00;55.80;;;;;;4868470;29;20492;-64
2022/09/22 08:46:37;;;;;;;5.82;4.25;;;23.80;52.60;;;;;;4864838;29;20096;-63
2022/09/22 08:52:27;;;;;;;6.20;3.92;;;22.90;52.70;;;;;;4878196;29;20408;-64
2022/09/22 08:54:58;;;;;;;5.25;3.80;;;22.00;54.10;;;;;;4871575;29;20033;-63
2022/09/22 08:57:55;;;;;;;4.82;3.00;;;21.30;57.80;;;;;;4872755;29;20041;-67
2022/09/22 09:00:21;;;;;;;3.72;3.40;;;20.80;59.10;;;;;;4890691;29;20032;-62
2022/09/22 09:03:15;;;;;;;3.03;2.65;;;20.40;59.90;;;;;;4877728;29;20488;-61
2022/09/22 09:06:08;;;;;;;3.15;2.67;;;20.40;61.10;;;;;;4857006;29;20036;-62
2022/09/22 09:09:20;;;;;;;3.60;2.70;;;20.90;62.40;;;;;;4841062;29;20033;-62
2022/09/22 09:11:46;;;;;;;3.08;2.53;;;21.00;60.10;;;;;;4861738;29;20045;-63
2022/09/22 09:14:30;;;;;;;2.30;2.00;;;20.80;60.30;;;;;;4869878;29;20070;-61
2022/09/22 09:17:06;;;;;;;2.42;2.22;;;20.50;60.50;;;;;;4866244;29;20022;-63
2022/09/22 09:19:42;;;;;;;2.38;2.17;;;20.00;62.10;;;;;;4877993;29;20022;-63
2022/09/22 09:22:24;;;;;;;3.30;2.35;;;19.60;63.60;;;;;;4878325;29;20107;-61
2022/09/22 09:25:05;;;;;;;2.50;2.30;;;19.20;63.60;;;;;;4864354;29;20033;-61
2022/09/22 09:27:37;;;;;;;2.25;1.98;;;18.70;65.60;;;;;;4863984;29;20396;-63
2022/09/22 09:30:08;;;;;;;2.45;2.22;;;18.60;69.50;;;;;;4869274;29;20471;-64
2022/09/22 09:32:55;;;;;;;2.60;2.00;;;18.80;69.10;;;;;;4867472;29;20032;-63
2022/09/22 09:35:26;;;;;;;2.53;2.20;;;19.30;68.60;;;;;;4872814;29;20045;-63
2022/09/22 09:37:58;;;;;;;2.45;2.25;;;19.80;64.60;;;;;;4863799;29;20041;-63
2022/09/22 09:40:24;;;;;;;4.40;3.20;;;20.30;66.00;;;;;;4851821;29;20497;-60
2022/09/22 09:43:02;;;;;;;5.45;2.53;;;20.40;62.20;;;;;;4875245;29;20039;-63
2022/09/22 09:45:55;;;;;;;3.10;2.15;;;20.60;65.40;;;;;;4861907;29;20037;-62
2022/09/22 09:48:54;;;;;;;3.30;1.83;;;20.60;61.70;;;;;;4861105;29;20062;-64
2022/09/22 09:51:22;;;;;;;3.75;3.10;;;20.40;59.40;;;;;;4858778;29;20120;-65
2022/09/22 09:53:48;;;;;;;7.40;5.78;;;20.80;61.00;;;;;;4865529;29;20044;-62
2022/09/22 09:56:26;;;;;;;4.50;3.80;;;20.80;60.00;;;;;;4891841;29;20044;-64
2022/09/22 10:01:45;;;;;;;3.40;2.63;;;21.10;60.20;;;;;;4894726;29;20115;-61
2022/09/22 10:04:34;;;;;;;2.72;2.05;;;21.30;61.00;;;;;;4886968;29;20039;-63
2022/09/22 10:07:20;;;;;;;2.75;2.10;;;21.40;59.90;;;;;;4886473;29;20031;-63
2022/09/22 10:09:53;;;;;;;1.98;1.75;;;21.70;54.90;;;;;;4893118;29;20020;-61
2022/09/22 10:12:28;;;;;;;2.53;2.10;;;21.70;59.70;;;;;;4893634;29;20037;-61
2022/09/22 10:14:57;;;;;;;2.10;1.83;;;22.10;54.30;;;;;;4875782;29;20109;-59
2022/09/22 10:17:40;;;;;;;2.00;1.80;;;22.30;56.70;;;;;;4866208;29;20113;-60
2022/09/22 10:20:21;;;;;;;2.78;2.53;;;22.50;53.90;;;;;;4851267;29;20381;-61
2022/09/22 10:22:47;;;;;;;3.58;3.15;;;22.10;55.30;;;;;;4868028;29;20040;-60
2022/09/22 10:25:32;;;;;;;2.30;2.10;;;21.80;56.70;;;;;;4875726;29;20034;-59
2022/09/22 10:28:20;;;;;;;1.92;1.30;;;21.80;56.90;;;;;;4882496;29;20060;-61
2022/09/22 10:31:02;;;;;;;1.70;1.30;;;21.50;54.70;;;;;;4884629;29;20358;-62
2022/09/22 10:33:28;;;;;;;1.20;1.10;;;21.60;57.90;;;;;;4858015;29;20040;-61
2022/09/22 10:36:05;;;;;;;0.90;0.90;;;21.80;55.60;;;;;;4868231;29;20029;-62
2022/09/22 10:38:37;;;;;;;1.60;1.15;;;21.90;56.50;;;;;;4864129;29;20041;-62
2022/09/22 10:41:09;;;;;;;1.55;0.95;;;22.10;56.40;;;;;;4867576;29;20064;-61
2022/09/22 10:43:43;;;;;;;1.00;0.95;;;22.20;54.30;;;;;;4861215;29;20028;-62
2022/09/22 10:46:35;;;;;;;0.93;0.90;;;22.20;56.10;;;;;;4857181;29;20037;-62
2022/09/22 10:49:10;;;;;;;1.30;1.20;;;22.00;55.10;;;;;;4836523;29;20050;-62
2022/09/22 10:52:26;;;;;;;2.08;1.40;;;22.20;53.70;;;;;;4866415;29;20036;-63
2022/09/22 10:55:12;;;;;;;1.25;1.15;;;22.70;56.70;;;;;;4850846;29;20112;-60
2022/09/22 10:58:03;;;;;;;1.27;1.17;;;22.40;53.10;;;;;;4872158;29;20041;-59
2022/09/22 11:00:35;;;;;;;1.00;0.90;;;21.90;54.60;;;;;;4879681;29;20518;-59
2022/09/22 11:03:22;;;;;;;1.30;1.20;;;21.90;57.60;;;;;;4878850;29;20116;-61
2022/09/22 11:12:18;;;;;;;1.17;1.08;;;22.70;53.70;;;;;;4879673;29;20063;-61
2022/09/22 11:15:04;;;;;;;1.10;1.00;;;22.60;50.40;;;;;;4878911;29;20543;-61
2022/09/22 11:18:03;;;;;;;1.05;0.90;;;22.00;51.50;;;;;;4871175;29;20080;-60
2022/09/22 11:20:43;;;;;;;1.30;1.00;;;22.50;50.60;;;;;;4875057;29;20029;-62
2022/09/22 11:23:37;;;;;;;1.50;1.40;;;23.30;52.70;;;;;;4879926;29;20025;-63
2022/09/22 11:26:18;;;;;;;3.78;2.10;;;23.30;52.10;;;;;;4877782;29;20024;-64
2022/09/22 11:29:08;;;;;;;2.63;1.70;;;23.10;51.60;;;;;;4879048;29;20025;-59
2022/09/22 11:32:09;;;;;;;1.67;1.58;;;23.10;52.10;;;;;;4875069;29;20037;-59
2022/09/22 11:34:59;;;;;;;1.15;1.05;;;23.70;49.50;;;;;;4846536;29;20049;-61
2022/09/22 11:37:41;;;;;;;1.15;1.05;;;24.30;51.30;;;;;;4891625;29;20041;-61
2022/09/22 11:40:14;;;;;;;3.60;3.10;;;24.60;48.20;;;;;;4874413;29;20087;-60
2022/09/22 11:42:54;;;;;;;1.58;1.48;;;24.40;46.70;;;;;;4869281;29;20028;-62
2022/09/22 11:45:35;;;;;;;2.00;1.80;;;24.20;49.00;;;;;;4871692;29;20059;-61
2022/09/22 11:48:18;;;;;;;2.20;2.00;;;24.00;48.40;;;;;;4867970;29;20030;-60
2022/09/22 11:50:53;;;;;;;1.88;1.77;;;24.10;49.60;;;;;;4874129;29;20499;-60
2022/09/22 11:53:43;;;;;;;4.97;4.57;;;23.80;48.60;;;;;;4872912;29;20037;-61
2022/09/22 11:56:14;;;;;;;3.65;3.35;;;23.40;49.70;;;;;;4875237;29;20082;-59
2022/09/22 11:58:43;;;;;;;2.63;2.42;;;23.10;49.20;;;;;;4871495;29;20044;-62
2022/09/22 12:01:21;;;;;;;4.05;3.20;;;22.90;47.90;;;;;;4877343;29;20035;-61
2022/09/22 12:03:51;;;;;;;2.60;2.40;;;22.40;49.50;;;;;;4875813;29;20029;-62
2022/09/22 12:06:23;;;;;;;2.35;1.65;;;21.90;52.20;;;;;;4872314;29;20081;-61
2022/09/22 12:09:09;;;;;;;1.70;1.55;;;21.50;52.00;;;;;;4875658;29;20029;-64
2022/09/22 12:11:38;;;;;;;2.22;1.17;;;21.30;52.20;;;;;;4866282;29;20444;-64
2022/09/22 12:14:12;;;;;;;1.90;1.10;;;21.20;52.90;;;;;;4864744;29;20060;-62
2022/09/22 12:16:50;;;;;;;1.83;0.93;;;21.10;51.70;;;;;;4864128;29;20036;-62
2022/09/22 12:19:37;;;;;;;0.85;0.85;;;20.90;50.70;;;;;;4872472;29;20484;-60
2022/09/22 12:22:20;;;;;;;1.00;0.80;;;20.80;51.70;;;;;;4871829;29;20073;-61
2022/09/22 12:24:46;;;;;;;0.80;0.80;;;21.30;53.70;;;;;;4855519;29;20025;-64
2022/09/22 12:27:23;;;;;;;0.90;0.80;;;22.10;50.90;;;;;;4848359;29;20713;-61
2022/09/22 12:29:59;;;;;;;1.90;1.67;;;22.60;52.60;;;;;;4839454;29;20030;-64
2022/09/22 12:32:33;;;;;;;1.30;1.20;;;23.20;52.40;;;;;;4859064;29;20635;-63
2022/09/22 12:34:59;;;;;;;1.50;1.40;;;23.60;50.50;;;;;;4870031;29;20025;-62
2022/09/22 12:37:35;;;;;;;1.13;1.02;;;23.90;52.40;;;;;;4875042;29;20029;-64
2022/09/22 12:40:40;;;;;;;2.70;2.50;;;24.10;49.20;;;;;;4865333;29;20096;-63
2022/09/22 12:43:18;;;;;;;1.50;1.40;;;24.00;47.50;;;;;;4858031;29;20504;-65
2022/09/22 12:45:44;;;;;;;1.20;1.10;;;23.30;46.30;;;;;;4885903;29;20510;-64
2022/09/22 12:48:17;;;;;;;0.90;0.75;;;23.40;48.10;;;;;;4885854;29;20064;-62
2022/09/22 12:50:51;;;;;;;;;;;23.20;47.90;;;;;;4867923;29;20060;-63
2022/09/22 12:53:26;;;;;;;1.17;0.70;;;23.10;48.80;;;;;;4864970;29;20249;-64
2022/09/22 12:55:54;;;;;;;0.55;0.55;;;23.20;46.40;;;;;;4860049;29;20439;-62
2022/09/22 12:58:19;;;;;;;1.23;0.60;;;23.50;47.70;;;;;;4856901;29;20025;-61
2022/09/22 13:00:50;;;;;;;0.80;0.80;;;23.50;47.70;;;;;;4857894;29;20110;-63
2022/09/22 13:03:25;;;;;;;0.60;0.60;;;23.30;46.30;;;;;;4858640;29;20495;-63
2022/09/22 13:06:21;;;;;;;1.17;1.08;;;23.00;48.20;;;;;;4856503;29;20081;-62
2022/09/22 13:08:53;;;;;;;1.08;0.98;;;23.10;46.80;;;;;;4857211;29;20101;-65
2022/09/22 13:11:39;;;;;;;1.20;0.80;;;22.90;45.30;;;;;;4859723;29;20441;-62
2022/09/22 13:14:43;;;;;;;1.48;1.00;;;22.80;46.30;;;;;;4860167;29;20499;-62
2022/09/22 13:17:44;;;;;;;0.73;0.70;;;23.20;47.00;;;;;;4860660;29;20421;-64
2022/09/22 13:20:31;;;;;;;0.65;0.65;;;23.40;44.50;;;;;;4860213;29;20026;-62
2022/09/22 13:23:12;;;;;;;0.40;0.40;;;23.60;48.70;;;;;;4859943;29;20438;-63